Terminal Aerodrome Forecast
Issued by NWS Green Bay, WI

Home | Current Version | Previous Version | Graphics & Text | Print | Product List | Glossary On
Versions: 1 2 3 4 5 6 7 8 9 10 11 12 13 14 15 16 17 18 19 20 21 22 23 24 25 26 27 28 29 30 31 32 33 34 35 36 37 38 39 40 41 42 43 44
595
FTUS43 KGRB 041324 AAA
TAFGRB
TAF AMD
KGRB 041324Z 0413/0512 16005KT 3SM -SN OVC015
      TEMPO 0413/0416 2SM -SN OVC008
     FM041600 17006KT 1 1/2SM -SN OVC007
      TEMPO 0418/0422 3/4SM -SN OVC004
     FM050100 22007KT 3SM -SN OVC012
     FM050300 23007KT P6SM BKN020
     FM050700 24006KT P6SM BKN030=

USA.gov is the U.S. government's official web portal to all federal, state and local government web resources and services.